Главная страница
METAR-TAF:

METAR-TAF

Аэропорты :

Криштиану Роналду

Фуншал, Мадейра, Португалия

широта: 32-41-52N, долгота: 016-46-28W, высота над уровнем моря: 59 м

Текущие метеонаблюдения

Эта сводка был подготовлена 18 минут назад, в 03:30 UTC
Ветер 7 Узел от северо-северо-восточный
Температура 17°C
Влажность 77%
Давление 1022 hPa
Видимость 10 км и более
небольшая облачность на высоте 1300 фута

METAR: LPMA 100330Z 02007KT 9999 FEW013 17/13 Q1022

Время: 04:48 (03:48 UTC)

Прогноз

Эта сводка был подготовлена 4 часа и 48 минут назад, в 23:00 UTC
Прогноз действительный с 10-го 00 UTC до 10-го 24 UTC
Ветер 12 Узел от северный
Видимость 10 км и более
Отдельные облака на высоте 1500 фута
Вероятность 30% :
временами
С 10-го 00 UTC до 10-го 08 UTC
Видимость: 8000 м
Рассеянная облачность на высоте 1200 фута
небольшие ливневые дожди

TAF: LPMA 092300Z 1000/1024 01012KT 9999 SCT015 PROB30 TEMPO 1000/1008 8000 -SHRA BKN012

Метеонаблюдения и прогнозы для более 4000 аэропортов (сводки METAR и TAF).

Имеющиеся станции представлены на карте желтыми и красными точками.

Чтобы увидеть название станции, наведите на нее мышь.

Затем щелкните, чтобы увидеть метеонаблюдения и метеопрогнозы.

Управление картой: чтобы увеличить масштаб, щелкните зеленые кнопки с черным крестиком; чтобы уменьшить масштаб, щелкните зеленую кнопку с тире; для просмотра соседних карт щелкайте зеленые стрелки.


METAR-TAF: